sensor_id;sensor_type;location;lat;lon;timestamp;P1;durP1;ratioP1;P2;durP2;ratioP2
18748;SDS011;9503;53.560;10.246;2023-04-06T00:02:21;8.77;;;4.47;;
18748;SDS011;9503;53.560;10.246;2023-04-06T00:04:48;8.93;;;4.73;;
18748;SDS011;9503;53.560;10.246;2023-04-06T00:07:15;10.10;;;4.80;;
18748;SDS011;9503;53.560;10.246;2023-04-06T00:09:42;7.40;;;4.50;;
18748;SDS011;9503;53.560;10.246;2023-04-06T00:12:08;9.07;;;5.03;;
18748;SDS011;9503;53.560;10.246;2023-04-06T00:14:35;8.60;;;4.60;;
18748;SDS011;9503;53.560;10.246;2023-04-06T00:17:03;7.20;;;4.10;;
18748;SDS011;9503;53.560;10.246;2023-04-06T00:19:30;8.27;;;4.30;;
18748;SDS011;9503;53.560;10.246;2023-04-06T00:21:57;12.00;;;5.47;;
18748;SDS011;9503;53.560;10.246;2023-04-06T00:24:24;8.67;;;4.37;;
18748;SDS011;9503;53.560;10.246;2023-04-06T00:26:51;6.30;;;4.57;;
18748;SDS011;9503;53.560;10.246;2023-04-06T00:29:17;8.53;;;4.57;;
18748;SDS011;9503;53.560;10.246;2023-04-06T00:31:44;8.47;;;4.43;;
18748;SDS011;9503;53.560;10.246;2023-04-06T00:34:13;8.80;;;4.47;;
18748;SDS011;9503;53.560;10.246;2023-04-06T00:36:40;6.33;;;3.97;;
18748;SDS011;9503;53.560;10.246;2023-04-06T00:39:07;6.90;;;4.03;;
18748;SDS011;9503;53.560;10.246;2023-04-06T00:41:34;8.87;;;4.47;;
18748;SDS011;9503;53.560;10.246;2023-04-06T00:44:01;5.63;;;4.17;;
18748;SDS011;9503;53.560;10.246;2023-04-06T00:46:28;7.77;;;5.17;;
18748;SDS011;9503;53.560;10.246;2023-04-06T00:48:54;8.70;;;3.90;;
18748;SDS011;9503;53.560;10.246;2023-04-06T00:51:22;9.03;;;4.30;;
18748;SDS011;9503;53.560;10.246;2023-04-06T00:53:50;9.93;;;4.77;;
18748;SDS011;9503;53.560;10.246;2023-04-06T00:56:17;6.87;;;4.67;;
18748;SDS011;9503;53.560;10.246;2023-04-06T00:58:43;7.83;;;4.17;;
18748;SDS011;9503;53.560;10.246;2023-04-06T01:01:10;8.63;;;4.90;;
18748;SDS011;9503;53.560;10.246;2023-04-06T01:03:37;7.13;;;4.83;;
18748;SDS011;9503;53.560;10.246;2023-04-06T01:06:04;8.13;;;4.93;;
18748;SDS011;9503;53.560;10.246;2023-04-06T01:08:32;7.80;;;4.43;;
18748;SDS011;9503;53.560;10.246;2023-04-06T01:10:59;10.10;;;4.83;;
18748;SDS011;9503;53.560;10.246;2023-04-06T01:13:26;6.73;;;4.50;;
18748;SDS011;9503;53.560;10.246;2023-04-06T01:15:53;8.70;;;4.80;;
18748;SDS011;9503;53.560;10.246;2023-04-06T01:18:24;10.70;;;5.40;;
18748;SDS011;9503;53.560;10.246;2023-04-06T01:20:52;9.93;;;4.90;;
18748;SDS011;9503;53.560;10.246;2023-04-06T01:23:20;9.30;;;5.13;;
18748;SDS011;9503;53.560;10.246;2023-04-06T01:25:47;9.43;;;5.40;;
18748;SDS011;9503;53.560;10.246;2023-04-06T01:28:13;6.27;;;4.50;;
18748;SDS011;9503;53.560;10.246;2023-04-06T01:30:40;9.47;;;5.17;;
18748;SDS011;9503;53.560;10.246;2023-04-06T01:33:07;7.47;;;4.33;;
18748;SDS011;9503;53.560;10.246;2023-04-06T01:35:34;9.63;;;4.87;;
18748;SDS011;9503;53.560;10.246;2023-04-06T01:38:01;9.07;;;4.60;;
18748;SDS011;9503;53.560;10.246;2023-04-06T01:40:29;6.53;;;4.43;;
18748;SDS011;9503;53.560;10.246;2023-04-06T01:42:56;8.83;;;4.43;;
18748;SDS011;9503;53.560;10.246;2023-04-06T01:45:23;6.23;;;4.70;;
18748;SDS011;9503;53.560;10.246;2023-04-06T01:47:50;8.33;;;4.63;;
18748;SDS011;9503;53.560;10.246;2023-04-06T01:50:17;7.80;;;4.70;;
18748;SDS011;9503;53.560;10.246;2023-04-06T01:52:43;7.00;;;4.73;;
18748;SDS011;9503;53.560;10.246;2023-04-06T01:55:10;8.80;;;5.13;;
18748;SDS011;9503;53.560;10.246;2023-04-06T01:57:38;10.13;;;4.63;;
18748;SDS011;9503;53.560;10.246;2023-04-06T02:00:05;6.73;;;4.63;;
18748;SDS011;9503;53.560;10.246;2023-04-06T02:02:33;6.73;;;3.93;;
18748;SDS011;9503;53.560;10.246;2023-04-06T02:04:59;10.63;;;5.17;;
18748;SDS011;9503;53.560;10.246;2023-04-06T02:07:26;10.43;;;5.17;;
18748;SDS011;9503;53.560;10.246;2023-04-06T02:09:53;9.43;;;4.97;;
18748;SDS011;9503;53.560;10.246;2023-04-06T02:12:21;7.30;;;5.10;;
18748;SDS011;9503;53.560;10.246;2023-04-06T02:14:50;8.40;;;5.10;;
18748;SDS011;9503;53.560;10.246;2023-04-06T02:17:17;9.80;;;5.57;;
18748;SDS011;9503;53.560;10.246;2023-04-06T02:19:44;8.17;;;4.97;;
18748;SDS011;9503;53.560;10.246;2023-04-06T02:22:10;7.57;;;4.60;;
18748;SDS011;9503;53.560;10.246;2023-04-06T02:24:37;9.93;;;5.33;;
18748;SDS011;9503;53.560;10.246;2023-04-06T02:27:04;8.70;;;4.80;;
18748;SDS011;9503;53.560;10.246;2023-04-06T02:29:31;7.73;;;4.53;;
18748;SDS011;9503;53.560;10.246;2023-04-06T02:31:59;7.77;;;5.33;;
18748;SDS011;9503;53.560;10.246;2023-04-06T02:34:26;9.13;;;4.87;;
18748;SDS011;9503;53.560;10.246;2023-04-06T02:36:53;9.53;;;4.87;;
18748;SDS011;9503;53.560;10.246;2023-04-06T02:39:19;10.17;;;5.63;;
18748;SDS011;9503;53.560;10.246;2023-04-06T02:41:46;10.20;;;5.20;;
18748;SDS011;9503;53.560;10.246;2023-04-06T02:44:13;8.60;;;4.87;;
18748;SDS011;9503;53.560;10.246;2023-04-06T02:46:40;8.37;;;4.73;;
18748;SDS011;9503;53.560;10.246;2023-04-06T02:49:08;8.67;;;4.87;;
18748;SDS011;9503;53.560;10.246;2023-04-06T02:51:35;6.43;;;4.47;;
18748;SDS011;9503;53.560;10.246;2023-04-06T02:54:03;7.03;;;4.60;;
18748;SDS011;9503;53.560;10.246;2023-04-06T02:56:34;7.77;;;4.53;;
18748;SDS011;9503;53.560;10.246;2023-04-06T02:59:00;6.97;;;4.47;;
18748;SDS011;9503;53.560;10.246;2023-04-06T03:01:27;12.20;;;5.37;;
18748;SDS011;9503;53.560;10.246;2023-04-06T03:03:54;9.70;;;5.03;;
18748;SDS011;9503;53.560;10.246;2023-04-06T03:06:22;8.97;;;5.53;;
18748;SDS011;9503;53.560;10.246;2023-04-06T03:08:49;8.63;;;5.63;;
18748;SDS011;9503;53.560;10.246;2023-04-06T03:11:19;8.77;;;5.43;;
18748;SDS011;9503;53.560;10.246;2023-04-06T03:13:51;10.23;;;5.50;;
18748;SDS011;9503;53.560;10.246;2023-04-06T03:16:18;9.57;;;5.47;;
18748;SDS011;9503;53.560;10.246;2023-04-06T03:18:45;11.17;;;5.30;;
18748;SDS011;9503;53.560;10.246;2023-04-06T03:21:12;10.90;;;6.13;;
18748;SDS011;9503;53.560;10.246;2023-04-06T03:23:41;10.20;;;5.90;;
18748;SDS011;9503;53.560;10.246;2023-04-06T03:26:08;8.80;;;5.40;;
18748;SDS011;9503;53.560;10.246;2023-04-06T03:28:35;9.87;;;5.83;;
18748;SDS011;9503;53.560;10.246;2023-04-06T03:31:01;11.87;;;6.83;;
18748;SDS011;9503;53.560;10.246;2023-04-06T03:33:28;14.07;;;6.30;;
18748;SDS011;9503;53.560;10.246;2023-04-06T03:35:55;11.67;;;6.53;;
18748;SDS011;9503;53.560;10.246;2023-04-06T03:38:22;9.00;;;5.47;;
18748;SDS011;9503;53.560;10.246;2023-04-06T03:40:50;10.07;;;6.23;;
18748;SDS011;9503;53.560;10.246;2023-04-06T03:43:17;9.80;;;5.47;;
18748;SDS011;9503;53.560;10.246;2023-04-06T03:45:43;11.27;;;5.57;;
18748;SDS011;9503;53.560;10.246;2023-04-06T03:48:10;10.43;;;5.80;;
18748;SDS011;9503;53.560;10.246;2023-04-06T03:50:37;9.53;;;5.77;;
18748;SDS011;9503;53.560;10.246;2023-04-06T03:53:04;12.37;;;6.60;;
18748;SDS011;9503;53.560;10.246;2023-04-06T03:55:31;9.90;;;6.30;;
18748;SDS011;9503;53.560;10.246;2023-04-06T03:57:59;10.23;;;6.50;;
18748;SDS011;9503;53.560;10.246;2023-04-06T04:00:26;14.33;;;6.63;;
18748;SDS011;9503;53.560;10.246;2023-04-06T04:02:53;11.23;;;6.40;;
18748;SDS011;9503;53.560;10.246;2023-04-06T04:05:20;13.90;;;6.80;;
18748;SDS011;9503;53.560;10.246;2023-04-06T04:07:50;11.13;;;6.53;;
18748;SDS011;9503;53.560;10.246;2023-04-06T04:10:16;12.50;;;6.97;;
18748;SDS011;9503;53.560;10.246;2023-04-06T04:12:43;16.67;;;7.47;;
18748;SDS011;9503;53.560;10.246;2023-04-06T04:15:11;17.20;;;7.43;;
18748;SDS011;9503;53.560;10.246;2023-04-06T04:17:38;10.63;;;6.67;;
18748;SDS011;9503;53.560;10.246;2023-04-06T04:20:06;11.80;;;7.33;;
18748;SDS011;9503;53.560;10.246;2023-04-06T04:22:33;13.70;;;7.70;;
18748;SDS011;9503;53.560;10.246;2023-04-06T04:25:00;12.57;;;7.20;;
18748;SDS011;9503;53.560;10.246;2023-04-06T04:27:27;13.67;;;7.63;;
18748;SDS011;9503;53.560;10.246;2023-04-06T04:29:53;15.70;;;7.50;;
18748;SDS011;9503;53.560;10.246;2023-04-06T04:32:22;13.30;;;7.67;;
18748;SDS011;9503;53.560;10.246;2023-04-06T04:34:52;14.00;;;7.67;;
18748;SDS011;9503;53.560;10.246;2023-04-06T04:37:19;14.87;;;7.80;;
18748;SDS011;9503;53.560;10.246;2023-04-06T04:39:46;14.73;;;8.07;;
18748;SDS011;9503;53.560;10.246;2023-04-06T04:42:13;18.23;;;8.73;;
18748;SDS011;9503;53.560;10.246;2023-04-06T04:44:40;14.43;;;8.17;;
18748;SDS011;9503;53.560;10.246;2023-04-06T04:47:07;23.67;;;9.30;;
18748;SDS011;9503;53.560;10.246;2023-04-06T04:49:35;19.97;;;8.67;;
18748;SDS011;9503;53.560;10.246;2023-04-06T04:52:02;20.60;;;9.50;;
18748;SDS011;9503;53.560;10.246;2023-04-06T04:54:29;17.80;;;9.27;;
18748;SDS011;9503;53.560;10.246;2023-04-06T04:56:55;21.43;;;9.73;;
18748;SDS011;9503;53.560;10.246;2023-04-06T04:59:22;21.20;;;9.60;;
18748;SDS011;9503;53.560;10.246;2023-04-06T05:01:49;19.20;;;10.07;;
18748;SDS011;9503;53.560;10.246;2023-04-06T05:04:16;20.80;;;9.63;;
18748;SDS011;9503;53.560;10.246;2023-04-06T05:06:44;24.27;;;10.63;;
18748;SDS011;9503;53.560;10.246;2023-04-06T05:09:11;18.10;;;9.30;;
18748;SDS011;9503;53.560;10.246;2023-04-06T05:11:37;20.33;;;9.17;;
18748;SDS011;9503;53.560;10.246;2023-04-06T05:14:04;21.20;;;10.10;;
18748;SDS011;9503;53.560;10.246;2023-04-06T05:16:31;20.30;;;10.20;;
18748;SDS011;9503;53.560;10.246;2023-04-06T05:18:58;22.93;;;10.40;;
18748;SDS011;9503;53.560;10.246;2023-04-06T05:21:25;21.07;;;12.07;;
18748;SDS011;9503;53.560;10.246;2023-04-06T05:23:54;22.17;;;10.40;;
18748;SDS011;9503;53.560;10.246;2023-04-06T05:26:21;20.83;;;10.43;;
18748;SDS011;9503;53.560;10.246;2023-04-06T05:28:48;19.40;;;9.33;;
18748;SDS011;9503;53.560;10.246;2023-04-06T05:31:14;16.10;;;9.33;;
18748;SDS011;9503;53.560;10.246;2023-04-06T05:33:41;24.03;;;10.87;;
18748;SDS011;9503;53.560;10.246;2023-04-06T05:36:08;24.87;;;11.23;;
18748;SDS011;9503;53.560;10.246;2023-04-06T05:38:35;23.13;;;12.60;;
18748;SDS011;9503;53.560;10.246;2023-04-06T05:41:03;25.03;;;12.07;;
18748;SDS011;9503;53.560;10.246;2023-04-06T05:43:30;26.40;;;12.03;;
18748;SDS011;9503;53.560;10.246;2023-04-06T05:45:57;19.73;;;10.83;;
18748;SDS011;9503;53.560;10.246;2023-04-06T05:48:24;20.97;;;9.83;;
18748;SDS011;9503;53.560;10.246;2023-04-06T05:50:51;13.70;;;9.10;;
18748;SDS011;9503;53.560;10.246;2023-04-06T05:53:18;13.00;;;8.13;;
18748;SDS011;9503;53.560;10.246;2023-04-06T05:55:46;14.03;;;8.47;;
18748;SDS011;9503;53.560;10.246;2023-04-06T05:58:14;13.37;;;7.73;;
18748;SDS011;9503;53.560;10.246;2023-04-06T06:00:42;12.53;;;7.33;;
18748;SDS011;9503;53.560;10.246;2023-04-06T06:03:10;11.47;;;7.60;;
18748;SDS011;9503;53.560;10.246;2023-04-06T06:05:38;16.33;;;8.03;;
18748;SDS011;9503;53.560;10.246;2023-04-06T06:08:04;12.30;;;7.03;;
18748;SDS011;9503;53.560;10.246;2023-04-06T06:10:31;11.43;;;7.33;;
18748;SDS011;9503;53.560;10.246;2023-04-06T06:12:58;12.90;;;7.50;;
18748;SDS011;9503;53.560;10.246;2023-04-06T06:15:26;10.93;;;6.80;;
18748;SDS011;9503;53.560;10.246;2023-04-06T06:17:53;9.83;;;6.30;;
18748;SDS011;9503;53.560;10.246;2023-04-06T06:20:19;9.73;;;6.60;;
18748;SDS011;9503;53.560;10.246;2023-04-06T06:22:46;8.10;;;5.53;;
18748;SDS011;9503;53.560;10.246;2023-04-06T06:25:13;8.30;;;5.70;;
18748;SDS011;9503;53.560;10.246;2023-04-06T06:27:40;6.40;;;5.03;;
18748;SDS011;9503;53.560;10.246;2023-04-06T06:30:08;7.20;;;5.20;;
18748;SDS011;9503;53.560;10.246;2023-04-06T06:32:36;8.50;;;4.93;;
18748;SDS011;9503;53.560;10.246;2023-04-06T06:35:03;8.10;;;5.47;;
18748;SDS011;9503;53.560;10.246;2023-04-06T06:37:30;8.07;;;5.27;;
18748;SDS011;9503;53.560;10.246;2023-04-06T06:39:57;6.53;;;5.40;;
18748;SDS011;9503;53.560;10.246;2023-04-06T06:42:24;9.87;;;5.60;;
18748;SDS011;9503;53.560;10.246;2023-04-06T06:44:51;7.53;;;5.67;;
18748;SDS011;9503;53.560;10.246;2023-04-06T06:47:17;7.97;;;5.00;;
18748;SDS011;9503;53.560;10.246;2023-04-06T06:49:46;9.13;;;5.60;;
18748;SDS011;9503;53.560;10.246;2023-04-06T06:52:12;11.73;;;5.43;;
18748;SDS011;9503;53.560;10.246;2023-04-06T06:54:39;12.17;;;5.83;;
18748;SDS011;9503;53.560;10.246;2023-04-06T06:57:06;8.63;;;6.17;;
18748;SDS011;9503;53.560;10.246;2023-04-06T06:59:33;9.77;;;4.80;;
18748;SDS011;9503;53.560;10.246;2023-04-06T07:01:59;7.33;;;5.50;;
18748;SDS011;9503;53.560;10.246;2023-04-06T07:04:26;7.43;;;5.53;;
18748;SDS011;9503;53.560;10.246;2023-04-06T07:06:54;10.73;;;5.47;;
18748;SDS011;9503;53.560;10.246;2023-04-06T07:09:21;7.43;;;4.90;;
18748;SDS011;9503;53.560;10.246;2023-04-06T07:11:48;5.93;;;4.90;;
18748;SDS011;9503;53.560;10.246;2023-04-06T07:14:15;9.20;;;5.40;;
18748;SDS011;9503;53.560;10.246;2023-04-06T07:16:42;9.53;;;4.80;;
18748;SDS011;9503;53.560;10.246;2023-04-06T07:19:10;7.03;;;5.03;;
18748;SDS011;9503;53.560;10.246;2023-04-06T07:21:36;8.67;;;4.67;;
18748;SDS011;9503;53.560;10.246;2023-04-06T07:24:05;7.53;;;5.20;;
18748;SDS011;9503;53.560;10.246;2023-04-06T07:26:32;7.13;;;4.70;;
18748;SDS011;9503;53.560;10.246;2023-04-06T07:28:59;7.57;;;4.70;;
18748;SDS011;9503;53.560;10.246;2023-04-06T07:31:25;5.70;;;4.43;;
18748;SDS011;9503;53.560;10.246;2023-04-06T07:33:52;8.17;;;4.83;;
18748;SDS011;9503;53.560;10.246;2023-04-06T07:36:19;5.10;;;4.57;;
18748;SDS011;9503;53.560;10.246;2023-04-06T07:38:46;6.93;;;4.47;;
18748;SDS011;9503;53.560;10.246;2023-04-06T07:41:15;9.57;;;4.77;;
18748;SDS011;9503;53.560;10.246;2023-04-06T07:43:42;8.43;;;4.47;;
18748;SDS011;9503;53.560;10.246;2023-04-06T07:46:08;8.37;;;4.50;;
18748;SDS011;9503;53.560;10.246;2023-04-06T07:48:35;5.60;;;4.30;;
18748;SDS011;9503;53.560;10.246;2023-04-06T07:51:03;8.53;;;4.63;;
18748;SDS011;9503;53.560;10.246;2023-04-06T07:53:31;7.83;;;4.47;;
18748;SDS011;9503;53.560;10.246;2023-04-06T07:55:58;5.27;;;3.90;;
18748;SDS011;9503;53.560;10.246;2023-04-06T07:58:26;8.53;;;4.33;;
18748;SDS011;9503;53.560;10.246;2023-04-06T08:00:53;8.17;;;3.90;;
18748;SDS011;9503;53.560;10.246;2023-04-06T08:03:20;6.77;;;4.07;;
18748;SDS011;9503;53.560;10.246;2023-04-06T08:05:50;5.57;;;4.00;;
18748;SDS011;9503;53.560;10.246;2023-04-06T08:08:17;5.57;;;3.93;;
18748;SDS011;9503;53.560;10.246;2023-04-06T08:10:44;11.67;;;4.30;;
18748;SDS011;9503;53.560;10.246;2023-04-06T08:13:11;8.37;;;4.10;;
18748;SDS011;9503;53.560;10.246;2023-04-06T08:15:39;5.30;;;3.67;;
18748;SDS011;9503;53.560;10.246;2023-04-06T08:18:06;6.17;;;4.10;;
18748;SDS011;9503;53.560;10.246;2023-04-06T08:20:32;8.57;;;4.23;;
18748;SDS011;9503;53.560;10.246;2023-04-06T08:22:59;5.17;;;3.90;;
18748;SDS011;9503;53.560;10.246;2023-04-06T08:25:26;6.30;;;4.00;;
18748;SDS011;9503;53.560;10.246;2023-04-06T08:27:53;5.37;;;3.90;;
18748;SDS011;9503;53.560;10.246;2023-04-06T08:30:20;6.07;;;4.07;;
18748;SDS011;9503;53.560;10.246;2023-04-06T08:32:48;6.57;;;3.97;;
18748;SDS011;9503;53.560;10.246;2023-04-06T08:35:15;6.43;;;3.90;;
18748;SDS011;9503;53.560;10.246;2023-04-06T08:37:42;5.20;;;3.60;;
18748;SDS011;9503;53.560;10.246;2023-04-06T08:40:09;4.43;;;3.43;;
18748;SDS011;9503;53.560;10.246;2023-04-06T08:42:38;6.43;;;3.80;;
18748;SDS011;9503;53.560;10.246;2023-04-06T08:45:07;6.83;;;4.00;;
18748;SDS011;9503;53.560;10.246;2023-04-06T08:47:35;9.23;;;3.90;;
18748;SDS011;9503;53.560;10.246;2023-04-06T08:50:04;6.17;;;4.07;;
18748;SDS011;9503;53.560;10.246;2023-04-06T08:52:32;6.03;;;3.83;;
18748;SDS011;9503;53.560;10.246;2023-04-06T08:54:59;6.70;;;3.87;;
18748;SDS011;9503;53.560;10.246;2023-04-06T08:57:25;7.97;;;3.83;;
18748;SDS011;9503;53.560;10.246;2023-04-06T08:59:53;6.67;;;3.60;;
18748;SDS011;9503;53.560;10.246;2023-04-06T09:02:21;7.17;;;3.73;;
18748;SDS011;9503;53.560;10.246;2023-04-06T09:04:48;6.13;;;3.93;;
18748;SDS011;9503;53.560;10.246;2023-04-06T09:07:19;8.87;;;4.27;;
18748;SDS011;9503;53.560;10.246;2023-04-06T09:09:47;6.80;;;3.97;;
18748;SDS011;9503;53.560;10.246;2023-04-06T09:12:21;6.10;;;3.70;;
18748;SDS011;9503;53.560;10.246;2023-04-06T09:14:49;6.90;;;3.90;;
18748;SDS011;9503;53.560;10.246;2023-04-06T09:17:19;7.47;;;3.73;;
18748;SDS011;9503;53.560;10.246;2023-04-06T09:19:47;5.60;;;3.60;;
18748;SDS011;9503;53.560;10.246;2023-04-06T09:22:14;5.53;;;4.03;;
18748;SDS011;9503;53.560;10.246;2023-04-06T09:24:43;7.57;;;3.77;;
18748;SDS011;9503;53.560;10.246;2023-04-06T09:27:11;4.60;;;2.97;;
18748;SDS011;9503;53.560;10.246;2023-04-06T09:29:37;7.03;;;3.47;;
18748;SDS011;9503;53.560;10.246;2023-04-06T09:32:04;4.57;;;3.30;;
18748;SDS011;9503;53.560;10.246;2023-04-06T09:34:32;8.53;;;3.37;;
18748;SDS011;9503;53.560;10.246;2023-04-06T09:36:59;4.77;;;3.33;;
18748;SDS011;9503;53.560;10.246;2023-04-06T09:39:26;5.13;;;3.40;;
18748;SDS011;9503;53.560;10.246;2023-04-06T09:41:54;5.87;;;3.43;;
18748;SDS011;9503;53.560;10.246;2023-04-06T09:44:21;4.93;;;3.20;;
18748;SDS011;9503;53.560;10.246;2023-04-06T09:46:50;6.17;;;3.80;;
18748;SDS011;9503;53.560;10.246;2023-04-06T09:49:20;4.90;;;3.63;;
18748;SDS011;9503;53.560;10.246;2023-04-06T09:51:51;6.20;;;3.70;;
18748;SDS011;9503;53.560;10.246;2023-04-06T09:54:21;4.80;;;3.50;;
18748;SDS011;9503;53.560;10.246;2023-04-06T09:56:50;6.90;;;3.70;;
18748;SDS011;9503;53.560;10.246;2023-04-06T09:59:20;10.43;;;3.73;;
18748;SDS011;9503;53.560;10.246;2023-04-06T10:01:52;4.27;;;3.10;;
18748;SDS011;9503;53.560;10.246;2023-04-06T10:04:26;4.67;;;2.90;;
18748;SDS011;9503;53.560;10.246;2023-04-06T10:07:03;4.87;;;3.67;;
18748;SDS011;9503;53.560;10.246;2023-04-06T10:09:32;7.20;;;3.10;;
18748;SDS011;9503;53.560;10.246;2023-04-06T10:12:03;4.37;;;3.37;;
18748;SDS011;9503;53.560;10.246;2023-04-06T10:14:32;5.70;;;3.73;;
18748;SDS011;9503;53.560;10.246;2023-04-06T10:17:02;7.90;;;4.30;;
18748;SDS011;9503;53.560;10.246;2023-04-06T10:19:30;5.33;;;3.07;;
18748;SDS011;9503;53.560;10.246;2023-04-06T10:22:02;5.03;;;3.30;;
18748;SDS011;9503;53.560;10.246;2023-04-06T10:24:31;5.77;;;3.67;;
18748;SDS011;9503;53.560;10.246;2023-04-06T10:26:58;9.13;;;3.73;;
18748;SDS011;9503;53.560;10.246;2023-04-06T10:29:27;4.87;;;3.60;;
18748;SDS011;9503;53.560;10.246;2023-04-06T10:31:55;7.23;;;3.83;;
18748;SDS011;9503;53.560;10.246;2023-04-06T10:34:22;6.90;;;4.27;;
18748;SDS011;9503;53.560;10.246;2023-04-06T10:36:48;6.67;;;4.03;;
18748;SDS011;9503;53.560;10.246;2023-04-06T10:39:15;4.90;;;3.80;;
18748;SDS011;9503;53.560;10.246;2023-04-06T10:41:51;7.80;;;4.17;;
18748;SDS011;9503;53.560;10.246;2023-04-06T10:44:17;4.77;;;3.70;;
18748;SDS011;9503;53.560;10.246;2023-04-06T10:46:52;6.60;;;4.33;;
18748;SDS011;9503;53.560;10.246;2023-04-06T10:49:21;8.43;;;4.70;;
18748;SDS011;9503;53.560;10.246;2023-04-06T10:51:51;7.40;;;4.20;;
18748;SDS011;9503;53.560;10.246;2023-04-06T10:54:20;8.10;;;4.60;;
18748;SDS011;9503;53.560;10.246;2023-04-06T10:56:48;5.13;;;4.33;;
18748;SDS011;9503;53.560;10.246;2023-04-06T10:59:18;7.07;;;4.77;;
18748;SDS011;9503;53.560;10.246;2023-04-06T11:01:46;5.80;;;4.37;;
18748;SDS011;9503;53.560;10.246;2023-04-06T11:04:15;5.87;;;4.37;;
18748;SDS011;9503;53.560;10.246;2023-04-06T11:06:47;7.63;;;4.43;;
18748;SDS011;9503;53.560;10.246;2023-04-06T11:09:23;6.60;;;4.70;;
18748;SDS011;9503;53.560;10.246;2023-04-06T11:11:51;8.57;;;4.90;;
18748;SDS011;9503;53.560;10.246;2023-04-06T11:14:18;7.27;;;4.83;;
18748;SDS011;9503;53.560;10.246;2023-04-06T11:16:46;8.40;;;5.10;;
18748;SDS011;9503;53.560;10.246;2023-04-06T11:19:13;8.83;;;4.77;;
18748;SDS011;9503;53.560;10.246;2023-04-06T11:21:41;9.90;;;5.53;;
18748;SDS011;9503;53.560;10.246;2023-04-06T11:24:13;7.30;;;5.20;;
18748;SDS011;9503;53.560;10.246;2023-04-06T11:26:42;6.53;;;4.30;;
18748;SDS011;9503;53.560;10.246;2023-04-06T11:29:10;7.83;;;4.67;;
18748;SDS011;9503;53.560;10.246;2023-04-06T11:31:41;7.33;;;5.00;;
18748;SDS011;9503;53.560;10.246;2023-04-06T11:34:09;8.50;;;5.50;;
18748;SDS011;9503;53.560;10.246;2023-04-06T11:36:39;9.23;;;5.23;;
18748;SDS011;9503;53.560;10.246;2023-04-06T11:39:07;14.10;;;6.93;;
18748;SDS011;9503;53.560;10.246;2023-04-06T11:41:36;6.20;;;5.27;;
18748;SDS011;9503;53.560;10.246;2023-04-06T11:44:03;7.57;;;5.63;;
18748;SDS011;9503;53.560;10.246;2023-04-06T11:46:31;11.17;;;6.40;;
18748;SDS011;9503;53.560;10.246;2023-04-06T11:48:58;8.30;;;5.93;;
18748;SDS011;9503;53.560;10.246;2023-04-06T11:51:25;9.07;;;5.73;;
18748;SDS011;9503;53.560;10.246;2023-04-06T11:53:52;9.17;;;5.73;;
18748;SDS011;9503;53.560;10.246;2023-04-06T11:56:23;10.40;;;7.13;;
18748;SDS011;9503;53.560;10.246;2023-04-06T11:58:52;11.73;;;6.57;;
18748;SDS011;9503;53.560;10.246;2023-04-06T12:01:21;10.33;;;6.50;;
18748;SDS011;9503;53.560;10.246;2023-04-06T12:03:47;10.07;;;6.93;;
18748;SDS011;9503;53.560;10.246;2023-04-06T12:06:14;9.40;;;6.40;;
18748;SDS011;9503;53.560;10.246;2023-04-06T12:08:41;11.83;;;6.83;;
18748;SDS011;9503;53.560;10.246;2023-04-06T12:11:08;10.73;;;6.75;;
18748;SDS011;9503;53.560;10.246;2023-04-06T12:13:35;9.13;;;6.63;;
18748;SDS011;9503;53.560;10.246;2023-04-06T12:16:03;8.48;;;6.18;;
18748;SDS011;9503;53.560;10.246;2023-04-06T12:18:31;8.32;;;6.25;;
18748;SDS011;9503;53.560;10.246;2023-04-06T12:20:58;10.03;;;6.23;;
18748;SDS011;9503;53.560;10.246;2023-04-06T12:23:25;7.88;;;6.20;;
18748;SDS011;9503;53.560;10.246;2023-04-06T12:25:51;10.53;;;6.23;;
18748;SDS011;9503;53.560;10.246;2023-04-06T12:28:19;9.30;;;6.40;;
18748;SDS011;9503;53.560;10.246;2023-04-06T12:30:48;10.60;;;6.45;;
18748;SDS011;9503;53.560;10.246;2023-04-06T12:33:16;12.65;;;6.68;;
18748;SDS011;9503;53.560;10.246;2023-04-06T12:35:43;10.95;;;6.15;;
18748;SDS011;9503;53.560;10.246;2023-04-06T12:38:09;9.40;;;6.77;;
18748;SDS011;9503;53.560;10.246;2023-04-06T12:40:36;10.43;;;6.40;;
18748;SDS011;9503;53.560;10.246;2023-04-06T12:43:04;8.50;;;6.50;;
18748;SDS011;9503;53.560;10.246;2023-04-06T12:45:31;10.43;;;6.43;;
18748;SDS011;9503;53.560;10.246;2023-04-06T12:47:58;9.77;;;6.20;;
18748;SDS011;9503;53.560;10.246;2023-04-06T12:50:26;10.20;;;6.80;;
18748;SDS011;9503;53.560;10.246;2023-04-06T12:52:53;10.57;;;6.97;;
18748;SDS011;9503;53.560;10.246;2023-04-06T12:55:20;11.48;;;7.03;;
18748;SDS011;9503;53.560;10.246;2023-04-06T12:57:47;9.43;;;6.00;;
18748;SDS011;9503;53.560;10.246;2023-04-06T13:00:14;8.07;;;5.65;;
18748;SDS011;9503;53.560;10.246;2023-04-06T13:02:41;8.73;;;5.97;;
18748;SDS011;9503;53.560;10.246;2023-04-06T13:05:11;9.45;;;6.30;;
18748;SDS011;9503;53.560;10.246;2023-04-06T13:07:40;8.73;;;5.88;;
18748;SDS011;9503;53.560;10.246;2023-04-06T13:10:07;8.10;;;6.13;;
18748;SDS011;9503;53.560;10.246;2023-04-06T13:12:34;11.82;;;6.13;;
18748;SDS011;9503;53.560;10.246;2023-04-06T13:15:01;7.75;;;5.95;;
18748;SDS011;9503;53.560;10.246;2023-04-06T13:17:29;10.23;;;6.18;;
18748;SDS011;9503;53.560;10.246;2023-04-06T13:19:55;13.13;;;6.32;;
18748;SDS011;9503;53.560;10.246;2023-04-06T13:22:22;10.90;;;6.20;;
18748;SDS011;9503;53.560;10.246;2023-04-06T13:24:51;14.10;;;5.90;;
18748;SDS011;9503;53.560;10.246;2023-04-06T13:27:17;9.40;;;6.22;;
18748;SDS011;9503;53.560;10.246;2023-04-06T13:29:44;10.68;;;6.00;;
18748;SDS011;9503;53.560;10.246;2023-04-06T13:32:11;8.90;;;5.90;;
18748;SDS011;9503;53.560;10.246;2023-04-06T13:34:38;9.48;;;6.05;;
18748;SDS011;9503;53.560;10.246;2023-04-06T13:37:05;7.72;;;5.72;;
18748;SDS011;9503;53.560;10.246;2023-04-06T13:39:32;9.30;;;6.22;;
18748;SDS011;9503;53.560;10.246;2023-04-06T13:42:00;8.35;;;6.10;;
18748;SDS011;9503;53.560;10.246;2023-04-06T13:44:27;8.95;;;6.50;;
18748;SDS011;9503;53.560;10.246;2023-04-06T13:46:54;9.05;;;6.15;;
18748;SDS011;9503;53.560;10.246;2023-04-06T13:49:22;7.63;;;5.75;;
18748;SDS011;9503;53.560;10.246;2023-04-06T13:51:49;10.10;;;5.95;;
18748;SDS011;9503;53.560;10.246;2023-04-06T13:54:16;8.45;;;6.25;;
18748;SDS011;9503;53.560;10.246;2023-04-06T13:56:42;7.72;;;6.15;;
18748;SDS011;9503;53.560;10.246;2023-04-06T13:59:10;10.70;;;6.75;;
18748;SDS011;9503;53.560;10.246;2023-04-06T14:01:37;8.52;;;6.93;;
18748;SDS011;9503;53.560;10.246;2023-04-06T14:04:04;8.57;;;6.35;;
18748;SDS011;9503;53.560;10.246;2023-04-06T14:06:30;9.82;;;6.38;;
18748;SDS011;9503;53.560;10.246;2023-04-06T14:08:57;9.55;;;6.13;;
18748;SDS011;9503;53.560;10.246;2023-04-06T14:11:24;9.13;;;6.68;;
18748;SDS011;9503;53.560;10.246;2023-04-06T14:13:51;7.78;;;6.47;;
18748;SDS011;9503;53.560;10.246;2023-04-06T14:16:19;8.63;;;6.53;;
18748;SDS011;9503;53.560;10.246;2023-04-06T14:18:47;10.00;;;6.75;;
18748;SDS011;9503;53.560;10.246;2023-04-06T14:21:14;10.18;;;7.00;;
18748;SDS011;9503;53.560;10.246;2023-04-06T14:23:41;8.35;;;6.38;;
18748;SDS011;9503;53.560;10.246;2023-04-06T14:26:09;11.18;;;7.38;;
18748;SDS011;9503;53.560;10.246;2023-04-06T14:28:36;9.25;;;7.32;;
18748;SDS011;9503;53.560;10.246;2023-04-06T14:31:09;10.05;;;6.88;;
18748;SDS011;9503;53.560;10.246;2023-04-06T14:33:39;9.57;;;6.57;;
18748;SDS011;9503;53.560;10.246;2023-04-06T14:36:06;8.57;;;6.25;;
18748;SDS011;9503;53.560;10.246;2023-04-06T14:38:33;9.43;;;6.72;;
18748;SDS011;9503;53.560;10.246;2023-04-06T14:41:00;8.35;;;6.40;;
18748;SDS011;9503;53.560;10.246;2023-04-06T14:43:27;9.90;;;7.20;;
18748;SDS011;9503;53.560;10.246;2023-04-06T14:45:54;8.60;;;6.20;;